Ocean Observer — GHXX — position and weather

sailwx.info

Track history (hours):
 
Tides and Currents Weather Stations Pressure Air Temp Water Temp Dewpoint Dewpoint Depression Visibility Wind Speed Wind Dir Waves Ship Positions

Ocean Observer

Last reported at 2017-Dec-10 20:47 UTC. Time now 2017-Dec-13 17:05 UTC.
Position N 60°56' E 004°15'.

Length 80 m; draft 5 m.

Type: . MMSI: 232217000.

Date/timePositionNaut miles runAvg speedWind from/ knotsBaromVisibWave heightAir tempDewpointWater temp
2017-Dec-10 20:47N 60°56' E 004°15'3 9.3
2017-Dec-10 20:30N 60°54' E 004°18'5 9.6
2017-Dec-10 20:00N 60°50' E 004°24'5 9.3
2017-Dec-10 19:30N 60°47' E 004°31'4 8.8
2017-Dec-10 19:00N 60°45' E 004°39'5 9.4
2017-Dec-10 18:30N 60°43' E 004°47'5 9.9
2017-Dec-10 18:00N 60°39' E 004°52'611.1
2017-Dec-10 17:30N 60°33' E 004°55'510.8
2017-Dec-10 17:00N 60°28' E 004°60'510.0
2017-Dec-10 16:30N 60°24' E 005°06'4 8.5
2017-Dec-10 16:00N 60°24' E 005°15'2 4.0
2017-Dec-10 15:30N 60°24' E 005°19'0 0.0
2017-Dec-10 15:00N 60°24' E 005°19'0 0.0
2017-Dec-10 14:28N 60°24' E 005°19'0 0.0
2017-Dec-10 13:58N 60°24' E 005°19'0 0.0
2017-Dec-10 13:28N 60°24' E 005°19'0 0.0
2017-Dec-10 12:58N 60°24' E 005°19'0 0.0
2017-Dec-10 12:28N 60°24' E 005°19'0 0.0
2017-Dec-10 11:58N 60°24' E 005°19'0 0.0
2017-Dec-10 11:28N 60°24' E 005°19'0 0.0
2017-Dec-10 10:58N 60°24' E 005°19'0 0.0
2017-Dec-10 10:29N 60°24' E 005°19'0 0.0
2017-Dec-10 09:59N 60°24' E 005°19'0 0.0
2017-Dec-10 09:29N 60°24' E 005°19'0 0.0
2017-Dec-10 08:59N 60°24' E 005°19'0 0.0
2017-Dec-10 08:29N 60°24' E 005°19'0 0.0
2017-Dec-10 07:59N 60°24' E 005°19'0 0.0
2017-Dec-10 07:29N 60°24' E 005°19'0 0.0
2017-Dec-10 06:59N 60°24' E 005°19'0 0.0
2017-Dec-10 06:29N 60°24' E 005°19'0 0.0
2017-Dec-10 05:59N 60°24' E 005°19'0 0.0
2017-Dec-10 05:29N 60°24' E 005°19'0 0.0
2017-Dec-10 04:59N 60°24' E 005°19'0 0.0
2017-Dec-10 04:29N 60°24' E 005°19'0 0.0
2017-Dec-10 03:59N 60°24' E 005°19'0 0.0
2017-Dec-10 03:29N 60°24' E 005°19'0 0.0
2017-Dec-10 02:59N 60°24' E 005°19'0 0.0
2017-Dec-10 02:29N 60°24' E 005°19'0 0.0
2017-Dec-10 01:59N 60°24' E 005°19'0 0.0
2017-Dec-10 01:29N 60°24' E 005°19'0 0.0
2017-Dec-10 00:59N 60°24' E 005°19'0 0.0
2017-Dec-10 00:29N 60°24' E 005°19'0 0.0
2017-Dec-09 23:59N 60°24' E 005°19'0 0.0
2017-Dec-09 23:29N 60°24' E 005°19'0 0.0
2017-Dec-09 22:59N 60°24' E 005°19'0 0.0
2017-Dec-09 22:29N 60°24' E 005°19'0 0.0
2017-Dec-09 21:59N 60°24' E 005°19'0 0.0
2017-Dec-09 21:29N 60°24' E 005°19'0 0.0
2017-Dec-09 20:59N 60°24' E 005°19'0 0.0
2017-Dec-09 20:29N 60°24' E 005°19'0 0.0
2017-Dec-09 19:59N 60°24' E 005°19'0 0.0
2017-Dec-09 19:29N 60°24' E 005°19'0 0.0
2017-Dec-09 18:59N 60°24' E 005°19'0 0.0
2017-Dec-09 18:29N 60°24' E 005°19'0 0.0
2017-Dec-09 17:59N 60°24' E 005°19'0 0.0
2017-Dec-09 17:29N 60°24' E 005°19'0 0.0
2017-Dec-09 16:59N 60°24' E 005°19'0 0.0
2017-Dec-09 16:29N 60°24' E 005°19'0 0.0
2017-Dec-09 15:59N 60°24' E 005°19'0 0.0
2017-Dec-09 15:29N 60°24' E 005°19'0 0.0
2017-Dec-09 14:59N 60°24' E 005°19'0 0.0
2017-Dec-09 14:29N 60°24' E 005°19'0 0.0
2017-Dec-09 13:59N 60°24' E 005°19'0 0.0
2017-Dec-09 13:29N 60°24' E 005°19'0 0.0
2017-Dec-09 12:59N 60°24' E 005°19'0 0.0
2017-Dec-09 12:29N 60°24' E 005°19'0 0.0
2017-Dec-09 11:59N 60°24' E 005°19'0 0.0
2017-Dec-09 11:29N 60°24' E 005°19'0 0.0
2017-Dec-09 10:59N 60°24' E 005°19'0 0.0
2017-Dec-09 10:29N 60°24' E 005°19'0 0.0
2017-Dec-09 09:59N 60°24' E 005°19'0 0.0
2017-Dec-09 09:29N 60°24' E 005°19'0 0.0
2017-Dec-09 08:59N 60°24' E 005°19'0 0.0
2017-Dec-09 08:29N 60°24' E 005°19'0 0.0
2017-Dec-09 07:59N 60°24' E 005°19'0 0.0
2017-Dec-09 07:29N 60°24' E 005°19'0 0.0
2017-Dec-09 06:59N 60°24' E 005°19'0 0.0
2017-Dec-09 06:29N 60°24' E 005°19'0 0.0
2017-Dec-09 05:59N 60°24' E 005°19'0 0.0
2017-Dec-09 05:29N 60°24' E 005°19'0 0.0
2017-Dec-09 04:59N 60°24' E 005°19'0 0.0
2017-Dec-09 04:29N 60°24' E 005°19'0 0.0
2017-Dec-09 03:59N 60°24' E 005°19'0 0.0
2017-Dec-09 03:29N 60°24' E 005°19'0 0.0
2017-Dec-09 02:59N 60°24' E 005°19'0 0.0
2017-Dec-09 02:29N 60°24' E 005°19'0 0.0
2017-Dec-09 01:59N 60°24' E 005°19'0 0.0
2017-Dec-09 01:29N 60°24' E 005°19'0 0.0
2017-Dec-09 00:59N 60°24' E 005°19'0 0.0
2017-Dec-09 00:29N 60°24' E 005°19'0 0.0
2017-Dec-08 23:59N 60°24' E 005°19'0 0.0
2017-Dec-08 23:29N 60°24' E 005°19'0 0.0
2017-Dec-08 22:59N 60°24' E 005°19'0 0.0
2017-Dec-08 22:29N 60°24' E 005°19'0 0.0
2017-Dec-08 21:59N 60°24' E 005°19'0 0.0
2017-Dec-08 21:29N 60°24' E 005°19'0 0.0
2017-Dec-08 20:59N 60°24' E 005°19'0 0.0
2017-Dec-08 20:29N 60°24' E 005°19'0 0.0
2017-Dec-08 19:59N 60°24' E 005°19'0 0.0
2017-Dec-08 19:29N 60°24' E 005°19'0 0.0
2017-Dec-08 18:59N 60°24' E 005°19'0 0.0
2017-Dec-08 18:29N 60°24' E 005°19'0 0.0
2017-Dec-08 17:59N 60°24' E 005°19'0 0.0
2017-Dec-08 17:29N 60°24' E 005°19'0 0.0
2017-Dec-08 16:59N 60°24' E 005°19'0 0.0
2017-Dec-08 16:29N 60°24' E 005°19'0 0.0
2017-Dec-08 15:59N 60°24' E 005°19'0 0.0
2017-Dec-08 15:29N 60°24' E 005°19'0 0.0
2017-Dec-08 14:59N 60°24' E 005°19'0 0.0
2017-Dec-08 14:29N 60°24' E 005°19'0 0.0
2017-Dec-08 13:59N 60°24' E 005°19'0 0.0
2017-Dec-08 13:29N 60°24' E 005°19'0 0.0
2017-Dec-08 12:59N 60°24' E 005°19'0 0.0
2017-Dec-08 12:29N 60°24' E 005°19'0 0.0
2017-Dec-08 11:59N 60°24' E 005°19'0 0.0
2017-Dec-08 11:29N 60°24' E 005°19'0 0.0
2017-Dec-08 10:59N 60°24' E 005°19'0 0.0
2017-Dec-08 10:29N 60°24' E 005°19'0 0.0
2017-Dec-08 09:59N 60°24' E 005°19'0 0.0
2017-Dec-08 09:29N 60°24' E 005°19'0 0.0
2017-Dec-08 08:59N 60°24' E 005°19'0 0.0
2017-Dec-08 08:29N 60°24' E 005°19'0 0.0
2017-Dec-08 07:59N 60°24' E 005°19'0 0.0
2017-Dec-08 07:29N 60°24' E 005°19'0 0.0
2017-Dec-08 06:59N 60°24' E 005°19'0 0.0
2017-Dec-08 06:29N 60°24' E 005°19'0 0.0
2017-Dec-08 05:59N 60°24' E 005°19'0 0.0
2017-Dec-08 05:29N 60°24' E 005°19'0 0.0
2017-Dec-08 04:59N 60°24' E 005°19'0 0.0
2017-Dec-08 04:29N 60°24' E 005°19'0 0.0
2017-Dec-08 03:59N 60°24' E 005°19'0 0.0
2017-Dec-08 03:29N 60°24' E 005°19'0 0.0
2017-Dec-08 02:59N 60°24' E 005°19'0 0.0
2017-Dec-08 02:29N 60°24' E 005°19'0 0.0
2017-Dec-08 01:59N 60°24' E 005°19'0 0.0
2017-Dec-08 01:29N 60°24' E 005°19'0 0.0
2017-Dec-08 00:59N 60°24' E 005°19'0 0.0
2017-Dec-08 00:29N 60°24' E 005°19'0 0.0
2017-Dec-07 23:59N 60°24' E 005°19'0 0.0
2017-Dec-07 23:29N 60°24' E 005°19'0 0.0
2017-Dec-07 22:59N 60°24' E 005°19'0 0.0
2017-Dec-07 22:29N 60°24' E 005°19'0 0.0
2017-Dec-07 21:59N 60°24' E 005°19'0 0.0
2017-Dec-07 21:29N 60°24' E 005°19'0 0.0
2017-Dec-07 20:59N 60°24' E 005°19'0 0.0
2017-Dec-07 20:29N 60°24' E 005°19'0 0.0
2017-Dec-07 19:59N 60°24' E 005°19'0 0.0
2017-Dec-07 19:29N 60°24' E 005°19'0 0.0
2017-Dec-07 18:59N 60°24' E 005°19'0 0.0
2017-Dec-07 18:29N 60°24' E 005°19'0 0.0
2017-Dec-07 17:59N 60°24' E 005°19'0 0.0
2017-Dec-07 17:29N 60°24' E 005°19'0 0.0
2017-Dec-07 16:59N 60°24' E 005°19'0 0.0
2017-Dec-07 16:29N 60°24' E 005°19'0 0.0
2017-Dec-07 15:59N 60°24' E 005°19'0 0.0
2017-Dec-07 15:29N 60°24' E 005°19'0 0.0
2017-Dec-07 14:59N 60°24' E 005°19'0 0.0
2017-Dec-07 14:29N 60°24' E 005°19'0 0.0
2017-Dec-07 13:59N 60°24' E 005°19'0 0.0
2017-Dec-07 13:29N 60°24' E 005°19'0 0.0
2017-Dec-07 12:59N 60°24' E 005°19'0 0.0
2017-Dec-07 12:29N 60°24' E 005°19'0 0.0
2017-Dec-07 11:59N 60°24' E 005°19'0 0.0
2017-Dec-07 11:29N 60°24' E 005°19'0 0.0
2017-Dec-07 10:59N 60°24' E 005°19'0 0.0
2017-Dec-07 10:29N 60°24' E 005°19'0 0.0
2017-Dec-07 09:59N 60°24' E 005°19'0 0.0
2017-Dec-07 09:29N 60°24' E 005°19'0 0.0
2017-Dec-07 08:59N 60°24' E 005°19'0 0.0
2017-Dec-07 08:29N 60°24' E 005°19'0 0.0
2017-Dec-07 07:59N 60°24' E 005°19'0 0.0
2017-Dec-07 07:29N 60°24' E 005°19'0 0.0
2017-Dec-07 06:59N 60°24' E 005°19'0 0.0
2017-Dec-07 06:29N 60°24' E 005°19'0 0.0
2017-Dec-07 05:59N 60°24' E 005°19'0 0.0
2017-Dec-07 05:29N 60°24' E 005°19'0 0.0
2017-Dec-07 04:59N 60°24' E 005°19'0 0.0
2017-Dec-07 04:29N 60°24' E 005°19'0 0.0
2017-Dec-07 03:59N 60°24' E 005°19'0 0.0
2017-Dec-07 03:29N 60°24' E 005°19'0 0.0
2017-Dec-07 02:59N 60°24' E 005°19'0 0.0
2017-Dec-07 02:29N 60°24' E 005°19'0 0.0
2017-Dec-07 01:59N 60°24' E 005°19'0 0.0
2017-Dec-07 01:29N 60°24' E 005°19'0 0.0
2017-Dec-07 00:59N 60°24' E 005°19'0 0.0
2017-Dec-07 00:29N 60°24' E 005°19'0 0.0
2017-Dec-06 23:59N 60°24' E 005°19'0 0.0
2017-Dec-06 23:29N 60°24' E 005°19'0 0.0
2017-Dec-06 22:59N 60°24' E 005°19'0 0.0
2017-Dec-06 22:29N 60°24' E 005°19'0 0.0
2017-Dec-06 21:59N 60°24' E 005°19'0 0.1
2017-Dec-06 21:30N 60°24' E 005°19'4 7.2
2017-Dec-06 21:00N 60°23' E 005°12'  
Track history (hours):
 
Tides and Currents Weather Stations Pressure Air Temp Water Temp Dewpoint Dewpoint Depression Visibility Wind Speed Wind Dir Waves Ship Positions

Ocean Observer

Last reported at 2017-Dec-10 20:47 UTC. Time now 2017-Dec-13 17:05 UTC.
Position N 60°56' E 004°15'.

Length 80 m; draft 5 m.

Type: . MMSI: 232217000.

Date/timePositionNaut miles runAvg speedWind from/ knotsBaromVisibWave heightAir tempDewpointWater temp
2017-Dec-10 20:47N 60°56' E 004°15'3 9.3
2017-Dec-10 20:30N 60°54' E 004°18'5 9.6
2017-Dec-10 20:00N 60°50' E 004°24'5 9.3
2017-Dec-10 19:30N 60°47' E 004°31'4 8.8
2017-Dec-10 19:00N 60°45' E 004°39'5 9.4
2017-Dec-10 18:30N 60°43' E 004°47'5 9.9
2017-Dec-10 18:00N 60°39' E 004°52'611.1
2017-Dec-10 17:30N 60°33' E 004°55'510.8
2017-Dec-10 17:00N 60°28' E 004°60'510.0
2017-Dec-10 16:30N 60°24' E 005°06'4 8.5
2017-Dec-10 16:00N 60°24' E 005°15'2 4.0
2017-Dec-10 15:30N 60°24' E 005°19'0 0.0
2017-Dec-10 15:00N 60°24' E 005°19'0 0.0
2017-Dec-10 14:28N 60°24' E 005°19'0 0.0
2017-Dec-10 13:58N 60°24' E 005°19'0 0.0
2017-Dec-10 13:28N 60°24' E 005°19'0 0.0
2017-Dec-10 12:58N 60°24' E 005°19'0 0.0
2017-Dec-10 12:28N 60°24' E 005°19'0 0.0
2017-Dec-10 11:58N 60°24' E 005°19'0 0.0
2017-Dec-10 11:28N 60°24' E 005°19'0 0.0
2017-Dec-10 10:58N 60°24' E 005°19'0 0.0
2017-Dec-10 10:29N 60°24' E 005°19'0 0.0
2017-Dec-10 09:59N 60°24' E 005°19'0 0.0
2017-Dec-10 09:29N 60°24' E 005°19'0 0.0
2017-Dec-10 08:59N 60°24' E 005°19'0 0.0
2017-Dec-10 08:29N 60°24' E 005°19'0 0.0
2017-Dec-10 07:59N 60°24' E 005°19'0 0.0
2017-Dec-10 07:29N 60°24' E 005°19'0 0.0
2017-Dec-10 06:59N 60°24' E 005°19'0 0.0
2017-Dec-10 06:29N 60°24' E 005°19'0 0.0
2017-Dec-10 05:59N 60°24' E 005°19'0 0.0
2017-Dec-10 05:29N 60°24' E 005°19'0 0.0
2017-Dec-10 04:59N 60°24' E 005°19'0 0.0
2017-Dec-10 04:29N 60°24' E 005°19'0 0.0
2017-Dec-10 03:59N 60°24' E 005°19'0 0.0
2017-Dec-10 03:29N 60°24' E 005°19'0 0.0
2017-Dec-10 02:59N 60°24' E 005°19'0 0.0
2017-Dec-10 02:29N 60°24' E 005°19'0 0.0
2017-Dec-10 01:59N 60°24' E 005°19'0 0.0
2017-Dec-10 01:29N 60°24' E 005°19'0 0.0
2017-Dec-10 00:59N 60°24' E 005°19'0 0.0
2017-Dec-10 00:29N 60°24' E 005°19'0 0.0
2017-Dec-09 23:59N 60°24' E 005°19'0 0.0
2017-Dec-09 23:29N 60°24' E 005°19'0 0.0
2017-Dec-09 22:59N 60°24' E 005°19'0 0.0
2017-Dec-09 22:29N 60°24' E 005°19'0 0.0
2017-Dec-09 21:59N 60°24' E 005°19'0 0.0
2017-Dec-09 21:29N 60°24' E 005°19'0 0.0
2017-Dec-09 20:59N 60°24' E 005°19'0 0.0
2017-Dec-09 20:29N 60°24' E 005°19'0 0.0
2017-Dec-09 19:59N 60°24' E 005°19'0 0.0
2017-Dec-09 19:29N 60°24' E 005°19'0 0.0
2017-Dec-09 18:59N 60°24' E 005°19'0 0.0
2017-Dec-09 18:29N 60°24' E 005°19'0 0.0
2017-Dec-09 17:59N 60°24' E 005°19'0 0.0
2017-Dec-09 17:29N 60°24' E 005°19'0 0.0
2017-Dec-09 16:59N 60°24' E 005°19'0 0.0
2017-Dec-09 16:29N 60°24' E 005°19'0 0.0
2017-Dec-09 15:59N 60°24' E 005°19'0 0.0
2017-Dec-09 15:29N 60°24' E 005°19'0 0.0
2017-Dec-09 14:59N 60°24' E 005°19'0 0.0
2017-Dec-09 14:29N 60°24' E 005°19'0 0.0
2017-Dec-09 13:59N 60°24' E 005°19'0 0.0
2017-Dec-09 13:29N 60°24' E 005°19'0 0.0
2017-Dec-09 12:59N 60°24' E 005°19'0 0.0
2017-Dec-09 12:29N 60°24' E 005°19'0 0.0
2017-Dec-09 11:59N 60°24' E 005°19'0 0.0
2017-Dec-09 11:29N 60°24' E 005°19'0 0.0
2017-Dec-09 10:59N 60°24' E 005°19'0 0.0
2017-Dec-09 10:29N 60°24' E 005°19'0 0.0
2017-Dec-09 09:59N 60°24' E 005°19'0 0.0
2017-Dec-09 09:29N 60°24' E 005°19'0 0.0
2017-Dec-09 08:59N 60°24' E 005°19'0 0.0
2017-Dec-09 08:29N 60°24' E 005°19'0 0.0
2017-Dec-09 07:59N 60°24' E 005°19'0 0.0
2017-Dec-09 07:29N 60°24' E 005°19'0 0.0
2017-Dec-09 06:59N 60°24' E 005°19'0 0.0
2017-Dec-09 06:29N 60°24' E 005°19'0 0.0
2017-Dec-09 05:59N 60°24' E 005°19'0 0.0
2017-Dec-09 05:29N 60°24' E 005°19'0 0.0
2017-Dec-09 04:59N 60°24' E 005°19'0 0.0
2017-Dec-09 04:29N 60°24' E 005°19'0 0.0
2017-Dec-09 03:59N 60°24' E 005°19'0 0.0
2017-Dec-09 03:29N 60°24' E 005°19'0 0.0
2017-Dec-09 02:59N 60°24' E 005°19'0 0.0
2017-Dec-09 02:29N 60°24' E 005°19'0 0.0
2017-Dec-09 01:59N 60°24' E 005°19'0 0.0
2017-Dec-09 01:29N 60°24' E 005°19'0 0.0
2017-Dec-09 00:59N 60°24' E 005°19'0 0.0
2017-Dec-09 00:29N 60°24' E 005°19'0 0.0
2017-Dec-08 23:59N 60°24' E 005°19'0 0.0
2017-Dec-08 23:29N 60°24' E 005°19'0 0.0
2017-Dec-08 22:59N 60°24' E 005°19'0 0.0
2017-Dec-08 22:29N 60°24' E 005°19'0 0.0
2017-Dec-08 21:59N 60°24' E 005°19'0 0.0
2017-Dec-08 21:29N 60°24' E 005°19'0 0.0
2017-Dec-08 20:59N 60°24' E 005°19'0 0.0
2017-Dec-08 20:29N 60°24' E 005°19'0 0.0
2017-Dec-08 19:59N 60°24' E 005°19'0 0.0
2017-Dec-08 19:29N 60°24' E 005°19'0 0.0
2017-Dec-08 18:59N 60°24' E 005°19'0 0.0
2017-Dec-08 18:29N 60°24' E 005°19'0 0.0
2017-Dec-08 17:59N 60°24' E 005°19'0 0.0
2017-Dec-08 17:29N 60°24' E 005°19'0 0.0
2017-Dec-08 16:59N 60°24' E 005°19'0 0.0
2017-Dec-08 16:29N 60°24' E 005°19'0 0.0
2017-Dec-08 15:59N 60°24' E 005°19'0 0.0
2017-Dec-08 15:29N 60°24' E 005°19'0 0.0
2017-Dec-08 14:59N 60°24' E 005°19'0 0.0
2017-Dec-08 14:29N 60°24' E 005°19'0 0.0
2017-Dec-08 13:59N 60°24' E 005°19'0 0.0
2017-Dec-08 13:29N 60°24' E 005°19'0 0.0
2017-Dec-08 12:59N 60°24' E 005°19'0 0.0
2017-Dec-08 12:29N 60°24' E 005°19'0 0.0
2017-Dec-08 11:59N 60°24' E 005°19'0 0.0
2017-Dec-08 11:29N 60°24' E 005°19'0 0.0
2017-Dec-08 10:59N 60°24' E 005°19'0 0.0
2017-Dec-08 10:29N 60°24' E 005°19'0 0.0
2017-Dec-08 09:59N 60°24' E 005°19'0 0.0
2017-Dec-08 09:29N 60°24' E 005°19'0 0.0
2017-Dec-08 08:59N 60°24' E 005°19'0 0.0
2017-Dec-08 08:29N 60°24' E 005°19'0 0.0
2017-Dec-08 07:59N 60°24' E 005°19'0 0.0
2017-Dec-08 07:29N 60°24' E 005°19'0 0.0
2017-Dec-08 06:59N 60°24' E 005°19'0 0.0
2017-Dec-08 06:29N 60°24' E 005°19'0 0.0
2017-Dec-08 05:59N 60°24' E 005°19'0 0.0
2017-Dec-08 05:29N 60°24' E 005°19'0 0.0
2017-Dec-08 04:59N 60°24' E 005°19'0 0.0
2017-Dec-08 04:29N 60°24' E 005°19'0 0.0
2017-Dec-08 03:59N 60°24' E 005°19'0 0.0
2017-Dec-08 03:29N 60°24' E 005°19'0 0.0
2017-Dec-08 02:59N 60°24' E 005°19'0 0.0
2017-Dec-08 02:29N 60°24' E 005°19'0 0.0
2017-Dec-08 01:59N 60°24' E 005°19'0 0.0
2017-Dec-08 01:29N 60°24' E 005°19'0 0.0
2017-Dec-08 00:59N 60°24' E 005°19'0 0.0
2017-Dec-08 00:29N 60°24' E 005°19'0 0.0
2017-Dec-07 23:59N 60°24' E 005°19'0 0.0
2017-Dec-07 23:29N 60°24' E 005°19'0 0.0
2017-Dec-07 22:59N 60°24' E 005°19'0 0.0
2017-Dec-07 22:29N 60°24' E 005°19'0 0.0
2017-Dec-07 21:59N 60°24' E 005°19'0 0.0
2017-Dec-07 21:29N 60°24' E 005°19'0 0.0
2017-Dec-07 20:59N 60°24' E 005°19'0 0.0
2017-Dec-07 20:29N 60°24' E 005°19'0 0.0
2017-Dec-07 19:59N 60°24' E 005°19'0 0.0
2017-Dec-07 19:29N 60°24' E 005°19'0 0.0
2017-Dec-07 18:59N 60°24' E 005°19'0 0.0
2017-Dec-07 18:29N 60°24' E 005°19'0 0.0
2017-Dec-07 17:59N 60°24' E 005°19'0 0.0
2017-Dec-07 17:29N 60°24' E 005°19'0 0.0
2017-Dec-07 16:59N 60°24' E 005°19'0 0.0
2017-Dec-07 16:29N 60°24' E 005°19'0 0.0
2017-Dec-07 15:59N 60°24' E 005°19'0 0.0
2017-Dec-07 15:29N 60°24' E 005°19'0 0.0
2017-Dec-07 14:59N 60°24' E 005°19'0 0.0
2017-Dec-07 14:29N 60°24' E 005°19'0 0.0
2017-Dec-07 13:59N 60°24' E 005°19'0 0.0
2017-Dec-07 13:29N 60°24' E 005°19'0 0.0
2017-Dec-07 12:59N 60°24' E 005°19'0 0.0
2017-Dec-07 12:29N 60°24' E 005°19'0 0.0
2017-Dec-07 11:59N 60°24' E 005°19'0 0.0
2017-Dec-07 11:29N 60°24' E 005°19'0 0.0
2017-Dec-07 10:59N 60°24' E 005°19'0 0.0
2017-Dec-07 10:29N 60°24' E 005°19'0 0.0
2017-Dec-07 09:59N 60°24' E 005°19'0 0.0
2017-Dec-07 09:29N 60°24' E 005°19'0 0.0
2017-Dec-07 08:59N 60°24' E 005°19'0 0.0
2017-Dec-07 08:29N 60°24' E 005°19'0 0.0
2017-Dec-07 07:59N 60°24' E 005°19'0 0.0
2017-Dec-07 07:29N 60°24' E 005°19'0 0.0
2017-Dec-07 06:59N 60°24' E 005°19'0 0.0
2017-Dec-07 06:29N 60°24' E 005°19'0 0.0
2017-Dec-07 05:59N 60°24' E 005°19'0 0.0
2017-Dec-07 05:29N 60°24' E 005°19'0 0.0
2017-Dec-07 04:59N 60°24' E 005°19'0 0.0
2017-Dec-07 04:29N 60°24' E 005°19'0 0.0
2017-Dec-07 03:59N 60°24' E 005°19'0 0.0
2017-Dec-07 03:29N 60°24' E 005°19'0 0.0
2017-Dec-07 02:59N 60°24' E 005°19'0 0.0
2017-Dec-07 02:29N 60°24' E 005°19'0 0.0
2017-Dec-07 01:59N 60°24' E 005°19'0 0.0
2017-Dec-07 01:29N 60°24' E 005°19'0 0.0
2017-Dec-07 00:59N 60°24' E 005°19'0 0.0
2017-Dec-07 00:29N 60°24' E 005°19'0 0.0
2017-Dec-06 23:59N 60°24' E 005°19'0 0.0
2017-Dec-06 23:29N 60°24' E 005°19'0 0.0
2017-Dec-06 22:59N 60°24' E 005°19'0 0.0
2017-Dec-06 22:29N 60°24' E 005°19'0 0.0
2017-Dec-06 21:59N 60°24' E 005°19'0 0.1
2017-Dec-06 21:30N 60°24' E 005°19'4 7.2
2017-Dec-06 21:00N 60°23' E 005°12'  

Dump ship's entire track history